Time;durP1;ratioP1;P1;durP2;ratioP2;P2;SDS_P1;SDS_P2;PMS_P1;PMS_P2;Temp;Humidity;BMP_temperature;BMP_pressure;BME280_temperature;BME280_humidity;BME280_pressure;Samples;Min_cycle;Max_cycle;Signal;HPM_P1;HPM_P2
2023/11/19 00:01:50;;;;;;;4.57;4.20;;;;;;;8.66;100.00;99934.78;10211179;28;20091;-70
2023/11/19 00:06:52;;;;;;;4.65;4.25;;;;;;;8.64;100.00;99910.16;10219347;28;20801;-69
2023/11/19 00:11:54;;;;;;;5.10;4.65;;;;;;;8.61;100.00;99906.91;10222336;28;20203;-71
2023/11/19 00:16:56;;;;;;;6.03;4.88;;;;;;;8.65;100.00;99906.53;10221029;28;20413;-71
2023/11/19 00:22:02;;;;;;;5.80;5.18;;;;;;;8.67;100.00;99899.28;10219455;28;20054;-71
2023/11/19 00:27:03;;;;;;;5.70;4.78;;;;;;;8.61;100.00;99914.84;10210768;28;20047;-70
2023/11/19 00:32:05;;;;;;;4.97;4.57;;;;;;;8.65;100.00;99926.94;10208766;28;20466;-71
2023/11/19 00:37:07;;;;;;;5.45;4.95;;;;;;;8.67;100.00;99909.06;10213997;28;20039;-68
2023/11/19 00:42:10;;;;;;;5.72;5.20;;;;;;;8.72;100.00;99916.66;10219172;28;20135;-70
2023/11/19 00:47:11;;;;;;;6.32;4.95;;;;;;;8.71;100.00;99894.59;10219108;28;20366;-70
2023/11/19 00:52:12;;;;;;;5.97;5.07;;;;;;;8.73;100.00;99891.84;10221317;28;20062;-70
2023/11/19 00:57:14;;;;;;;6.45;5.85;;;;;;;8.70;100.00;99887.59;10217391;28;20055;-70
2023/11/19 01:02:16;;;;;;;5.97;5.38;;;;;;;8.72;100.00;99884.81;10220928;28;20208;-71
2023/11/19 01:07:17;;;;;;;5.68;5.18;;;;;;;8.72;100.00;99864.47;10208341;28;20062;-69
2023/11/19 01:12:19;;;;;;;5.43;4.93;;;;;;;8.76;100.00;99865.88;10217344;28;20160;-73
2023/11/19 01:17:20;;;;;;;5.97;5.15;;;;;;;8.81;100.00;99863.72;10217158;28;20058;-69
2023/11/19 01:22:23;;;;;;;5.05;4.50;;;;;;;8.83;100.00;99851.16;10203792;28;20055;-70
2023/11/19 01:27:24;;;;;;;5.28;4.78;;;;;;;8.78;100.00;99839.22;10202895;28;20381;-69
2023/11/19 01:32:26;;;;;;;5.03;4.50;;;;;;;8.82;100.00;99857.44;10217352;28;20047;-73
2023/11/19 01:37:31;;;;;;;5.43;4.60;;;;;;;8.84;100.00;99850.22;10219089;28;20055;-70
2023/11/19 01:42:39;;;;;;;5.45;4.78;;;;;;;8.92;100.00;99860.22;10221412;28;20050;-71
2023/11/19 01:47:41;;;;;;;5.50;4.50;;;;;;;8.92;100.00;99851.41;10220317;28;20126;-70
2023/11/19 01:52:42;;;;;;;5.03;4.15;;;;;;;8.95;100.00;99848.53;10216707;28;20058;-68
2023/11/19 01:57:44;;;;;;;4.15;3.72;;;;;;;8.98;100.00;99846.44;10192654;28;20059;-70
2023/11/19 02:02:47;;;;;;;4.82;4.05;;;;;;;9.03;100.00;99828.31;10208692;28;20525;-73
2023/11/19 02:07:51;;;;;;;4.03;3.67;;;;;;;9.03;100.00;99820.34;10219655;28;20047;-72
2023/11/19 02:12:52;;;;;;;3.83;3.53;;;;;;;9.11;100.00;99822.41;10218409;28;20074;-70
2023/11/19 02:18:23;;;;;;;3.85;3.15;;;;;;;9.20;100.00;99805.72;10216111;28;20062;-71
2023/11/19 02:23:28;;;;;;;4.05;3.30;;;;;;;9.22;100.00;99786.16;10221242;28;20055;-72
2023/11/19 02:28:29;;;;;;;4.10;3.70;;;;;;;9.25;100.00;99799.19;10218525;28;20051;-69
2023/11/19 02:33:31;;;;;;;3.58;3.08;;;;;;;9.28;100.00;99805.09;10206973;28;20047;-71
2023/11/19 02:38:35;;;;;;;3.75;3.30;;;;;;;9.36;100.00;99805.28;10224304;28;20051;-71
2023/11/19 02:43:38;;;;;;;3.00;2.80;;;;;;;9.41;100.00;99802.25;10220432;28;20047;-70
2023/11/19 02:48:41;;;;;;;3.15;2.85;;;;;;;9.41;100.00;99791.63;10223396;28;20058;-70
2023/11/19 02:53:44;;;;;;;2.72;2.40;;;;;;;9.41;100.00;99774.84;10227311;28;20657;-69
2023/11/19 02:58:46;;;;;;;2.47;2.28;;;;;;;9.46;100.00;99780.66;10228275;28;20599;-71
2023/11/19 03:03:49;;;;;;;3.10;2.60;;;;;;;9.48;100.00;99787.50;10207592;28;20054;-70
2023/11/19 03:08:51;;;;;;;2.50;2.30;;;;;;;9.53;100.00;99779.13;10225950;28;20055;-71
2023/11/19 03:13:53;;;;;;;3.05;2.53;;;;;;;9.50;100.00;99759.00;10234578;28;20111;-70
2023/11/19 03:18:55;;;;;;;2.75;2.30;;;;;;;9.50;100.00;99753.69;10210007;28;20070;-69
2023/11/19 03:23:59;;;;;;;2.55;2.25;;;;;;;9.53;100.00;99756.09;10202158;28;20114;-71
2023/11/19 03:29:01;;;;;;;2.40;2.20;;;;;;;9.58;100.00;99744.22;10220862;28;20141;-70
2023/11/19 03:34:02;;;;;;;2.05;1.90;;;;;;;9.54;100.00;99748.94;10212227;28;20055;-70
2023/11/19 03:39:04;;;;;;;3.38;1.90;;;;;;;9.54;100.00;99759.56;10207499;28;20070;-71
2023/11/19 03:44:05;;;;;;;2.72;2.35;;;;;;;9.57;100.00;99761.13;10220398;28;20071;-72
2023/11/19 03:49:07;;;;;;;3.45;2.17;;;;;;;9.58;100.00;99760.16;10219844;28;20592;-72
2023/11/19 03:54:08;;;;;;;2.15;1.95;;;;;;;9.60;100.00;99759.06;10222571;28;20130;-71
2023/11/19 03:59:10;;;;;;;3.05;2.50;;;;;;;9.65;100.00;99756.88;10224623;28;20126;-71
2023/11/19 04:04:12;;;;;;;2.50;2.30;;;;;;;9.68;100.00;99745.13;10221795;28;20485;-71
2023/11/19 04:09:14;;;;;;;3.05;2.53;;;;;;;9.70;100.00;99752.00;10222239;28;20067;-75
2023/11/19 04:14:18;;;;;;;2.20;2.00;;;;;;;9.73;100.00;99742.94;10223551;28;20066;-71
2023/11/19 04:19:19;;;;;;;1.87;1.77;;;;;;;9.73;100.00;99721.66;10225025;28;20130;-72
2023/11/19 04:24:21;;;;;;;2.17;1.98;;;;;;;9.77;100.00;99739.00;10221823;28;20137;-70
2023/11/19 04:29:22;;;;;;;3.53;2.13;;;;;;;9.72;100.00;99725.28;10219621;28;20142;-71
2023/11/19 04:34:23;;;;;;;1.77;1.67;;;;;;;9.73;100.00;99717.19;10222384;28;20077;-70
2023/11/19 04:39:26;;;;;;;1.90;1.80;;;;;;;9.78;100.00;99714.13;10221805;28;24490;-71
2023/11/19 04:44:29;;;;;;;1.90;1.52;;;;;;;9.79;100.00;99699.88;10224649;28;20067;-70
2023/11/19 04:49:31;;;;;;;2.17;1.80;;;;;;;9.80;100.00;99701.53;10206284;28;20110;-71
2023/11/19 04:54:32;;;;;;;2.17;1.35;;;;;;;9.76;100.00;99694.81;10204677;28;20051;-71
2023/11/19 04:59:34;;;;;;;1.95;1.80;;;;;;;9.88;100.00;99712.38;10223952;28;20051;-72
2023/11/19 05:04:36;;;;;;;1.67;1.33;;;;;;;9.89;100.00;99706.09;10218696;28;20062;-71
2023/11/19 05:09:38;;;;;;;2.15;1.95;;;;;;;9.93;100.00;99716.44;10219380;28;20520;-71
2023/11/19 05:14:39;;;;;;;2.22;2.03;;;;;;;9.99;100.00;99726.56;10220151;28;20067;-71
2023/11/19 05:19:40;;;;;;;2.25;2.05;;;;;;;9.99;100.00;99726.56;10230882;28;20134;-72
2023/11/19 05:24:41;;;;;;;1.83;1.35;;;;;;;10.02;100.00;99726.28;10223396;28;20051;-70
2023/11/19 05:29:43;;;;;;;1.83;1.73;;;;;;;10.04;100.00;99713.69;10238583;28;20047;-71
2023/11/19 05:34:47;;;;;;;2.25;1.40;;;;;;;10.04;100.00;99711.03;10246184;28;20061;-75
2023/11/19 05:39:52;;;;;;;1.75;1.48;;;;;;;10.14;100.00;99714.56;10251254;28;20055;-71
2023/11/19 05:44:53;;;;;;;2.42;1.58;;;;;;;10.07;100.00;99682.38;10250118;28;20115;-70
2023/11/19 05:49:54;;;;;;;2.38;1.90;;;;;;;10.12;100.00;99689.94;10243572;28;20074;-71
2023/11/19 05:54:56;;;;;;;2.00;1.83;;;;;;;10.16;100.00;99686.03;10235130;28;20044;-71
2023/11/19 05:59:59;;;;;;;2.83;2.20;;;;;;;10.15;100.00;99686.16;10224215;28;20074;-70
2023/11/19 06:05:01;;;;;;;2.50;2.30;;;;;;;10.20;100.00;99691.94;10210920;28;20075;-71
2023/11/19 06:10:05;;;;;;;2.95;1.98;;;;;;;10.21;100.00;99705.09;10206000;28;20056;-70
2023/11/19 06:15:08;;;;;;;3.13;2.40;;;;;;;10.23;100.00;99715.59;10212143;28;20051;-68
2023/11/19 06:20:11;;;;;;;2.47;1.85;;;;;;;10.23;100.00;99712.94;10206814;28;20051;-73
2023/11/19 06:25:14;;;;;;;2.47;2.27;;;;;;;10.22;100.00;99724.53;10231562;28;20393;-71
2023/11/19 06:30:16;;;;;;;2.50;2.30;;;;;;;10.30;100.00;99730.03;10213368;28;20199;-69
2023/11/19 06:35:18;;;;;;;2.67;2.47;;;;;;;10.34;100.00;99714.69;10224363;28;20055;-70
2023/11/19 06:40:22;;;;;;;3.57;2.60;;;;;;;10.40;100.00;99719.47;10219212;28;20043;-72
2023/11/19 06:45:23;;;;;;;3.78;3.08;;;;;;;10.46;100.00;99734.03;10225229;28;20051;-72
2023/11/19 06:50:25;;;;;;;3.63;2.85;;;;;;;10.46;100.00;99724.22;10222246;28;20047;-68
2023/11/19 06:55:26;;;;;;;3.38;3.08;;;;;;;10.50;100.00;99730.13;10211515;28;20059;-70
2023/11/19 07:00:29;;;;;;;3.05;2.47;;;;;;;10.51;100.00;99743.31;10221667;28;20054;-68
2023/11/19 07:05:30;;;;;;;2.65;2.25;;;;;;;10.55;100.00;99727.91;10222089;28;20043;-69
2023/11/19 07:10:33;;;;;;;3.35;3.05;;;;;;;10.59;100.00;99729.31;10224270;28;20177;-72
2023/11/19 07:15:35;;;;;;;2.72;2.33;;;;;;;10.63;100.00;99727.22;10221400;28;20210;-72
2023/11/19 07:20:37;;;;;;;2.15;1.98;;;;;;;10.63;100.00;99729.88;10223489;28;20098;-70
2023/11/19 07:25:39;;;;;;;2.13;1.90;;;;;;;10.72;100.00;99742.34;10203549;28;20058;-69
2023/11/19 07:30:41;;;;;;;2.55;2.35;;;;;;;10.72;100.00;99729.03;10221516;28;20059;-71
2023/11/19 07:35:43;;;;;;;2.65;2.28;;;;;;;10.79;100.00;99746.16;10222727;28;20055;-74
2023/11/19 07:40:45;;;;;;;2.38;1.80;;;;;;;10.83;100.00;99736.09;10224981;28;20521;-73
2023/11/19 07:45:49;;;;;;;2.75;1.98;;;;;;;10.85;100.00;99734.13;10212556;28;20055;-72
2023/11/19 07:50:52;;;;;;;3.17;2.08;;;;;;;10.88;100.00;99734.69;10211399;28;20051;-71
2023/11/19 07:55:54;;;;;;;3.28;2.08;;;;;;;10.87;100.00;99738.34;10226505;28;20097;-69
2023/11/19 08:00:55;;;;;;;2.72;2.03;;;;;;;10.92;100.00;99746.75;10214114;28;20118;-69
2023/11/19 08:05:57;;;;;;;2.30;1.80;;;;;;;10.94;100.00;99754.59;10230532;28;20118;-71
2023/11/19 08:10:58;;;;;;;2.08;1.98;;;;;;;10.98;100.00;99771.16;10226982;28;20749;-70
2023/11/19 08:16:01;;;;;;;2.05;1.85;;;;;;;11.02;100.00;99761.88;10211250;28;20142;-70
2023/11/19 08:21:05;;;;;;;3.10;2.83;;;;;;;11.09;100.00;99769.22;10225948;28;20075;-69
2023/11/19 08:26:06;;;;;;;2.47;2.08;;;;;;;11.14;100.00;99744.81;10221746;28;20051;-71
2023/11/19 08:31:09;;;;;;;2.63;2.42;;;;;;;11.16;100.00;99753.50;10205288;28;20063;-72
2023/11/19 08:36:16;;;;;;;2.80;2.60;;;;;;;11.16;100.00;99758.84;10222412;28;20055;-69
2023/11/19 08:41:22;;;;;;;3.28;2.85;;;;;;;11.18;100.00;99772.84;10223921;28;20150;-72
2023/11/19 08:46:26;;;;;;;2.80;2.60;;;;;;;11.14;100.00;99766.13;10222220;28;20629;-72
2023/11/19 08:51:28;;;;;;;2.42;2.22;;;;;;;11.25;100.00;99767.81;10220637;28;20055;-72
2023/11/19 08:56:32;;;;;;;4.13;3.10;;;;;;;11.32;100.00;99779.59;10208560;28;20149;-72
2023/11/19 09:01:34;;;;;;;3.13;2.83;;;;;;;11.43;100.00;99757.28;10224242;28;20042;-70
2023/11/19 09:06:36;;;;;;;3.47;2.88;;;;;;;11.52;100.00;99767.09;10218680;28;20659;-71
2023/11/19 09:11:38;;;;;;;3.50;3.10;;;;;;;11.59;100.00;99765.56;10205277;28;20061;-71
2023/11/19 09:16:39;;;;;;;4.13;3.30;;;;;;;11.68;100.00;99774.53;10201754;28;20050;-72
2023/11/19 09:21:41;;;;;;;3.78;3.20;;;;;;;11.74;100.00;99762.44;10207980;28;20058;-72
2023/11/19 09:26:42;;;;;;;3.10;2.80;;;;;;;11.91;100.00;99756.38;10211296;28;20544;-73
2023/11/19 09:31:44;;;;;;;3.10;2.65;;;;;;;12.15;100.00;99755.06;10224683;28;20054;-71
2023/11/19 09:36:46;;;;;;;2.75;2.55;;;;;;;12.46;100.00;99762.78;10222031;28;20075;-71
2023/11/19 09:41:47;;;;;;;4.15;2.80;;;;;;;12.65;100.00;99762.69;10216878;28;20178;-70
2023/11/19 09:46:52;;;;;;;3.65;2.50;;;;;;;12.83;100.00;99775.25;10220109;28;20067;-70
2023/11/19 09:51:53;;;;;;;4.95;2.60;;;;;;;13.18;100.00;99777.16;10204293;28;20051;-72
2023/11/19 09:57:02;;;;;;;2.30;1.92;;;;;;;13.38;100.00;99763.66;10213656;28;20153;-74
2023/11/19 10:02:07;;;;;;;2.80;1.40;;;;;;;13.67;100.00;99766.06;10216330;28;20727;-71
2023/11/19 10:07:10;;;;;;;1.70;1.45;;;;;;;13.82;100.00;99768.19;10219423;28;20055;-71
2023/11/19 10:12:11;;;;;;;2.50;1.50;;;;;;;13.97;100.00;99763.91;10213950;28;20142;-71
2023/11/19 10:17:13;;;;;;;4.43;1.45;;;;;;;14.28;100.00;99764.28;10216622;28;20047;-70
2023/11/19 10:22:16;;;;;;;2.85;1.10;;;;;;;14.82;100.00;99750.63;10209014;28;20217;-73
2023/11/19 10:27:18;;;;;;;2.13;1.00;;;;;;;15.47;96.88;99740.16;10218129;28;20049;-70
2023/11/19 10:32:19;;;;;;;3.25;1.13;;;;;;;16.07;89.49;99738.94;10218574;28;20104;-72
2023/11/19 10:37:32;;;;;;;3.33;1.20;;;;;;;16.56;85.14;99751.38;10208731;28;20505;-72
2023/11/19 10:42:33;;;;;;;3.38;1.35;;;;;;;17.00;79.90;99744.59;10200287;28;20047;-70
2023/11/19 10:47:36;;;;;;;1.65;0.60;;;;;;;17.39;77.35;99741.78;10200768;28;20050;-70
2023/11/19 10:52:39;;;;;;;3.60;0.95;;;;;;;17.78;76.61;99737.25;10201050;28;20058;-72
2023/11/19 10:57:44;;;;;;;5.30;1.27;;;;;;;18.22;72.45;99725.69;10212378;28;20047;-70
2023/11/19 11:02:50;;;;;;;3.70;1.00;;;;;;;18.80;70.63;99723.13;10215187;28;20141;-70
2023/11/19 11:07:55;;;;;;;4.97;1.17;;;;;;;19.12;66.25;99721.00;10225128;28;20050;-70
2023/11/19 11:13:02;;;;;;;4.10;1.05;;;;;;;19.39;65.16;99715.84;10212156;28;20098;-70
2023/11/19 11:18:08;;;;;;;2.70;0.93;;;;;;;19.73;59.48;99706.97;10200077;28;20071;-71
2023/11/19 11:23:36;;;;;;;3.92;1.13;;;;;;;19.91;53.83;99705.69;10212922;28;20051;-71
2023/11/19 11:29:03;;;;;;;6.38;1.30;;;;;;;19.83;54.85;99713.94;10212433;28;20122;-70
2023/11/19 11:34:17;;;;;;;5.38;1.25;;;;;;;19.69;53.38;99708.41;10207292;28;20138;-70
2023/11/19 11:39:22;;;;;;;5.78;1.27;;;;;;;19.89;51.86;99711.28;10224979;28;20059;-72
2023/11/19 11:44:58;;;;;;;4.82;1.17;;;;;;;19.70;49.38;99718.19;10216055;28;20055;-76
2023/11/19 11:50:08;;;;;;;6.95;1.42;;;;;;;18.80;52.38;99708.81;10201219;28;20048;-70
2023/11/19 11:55:13;;;;;;;6.03;1.80;;;;;;;18.42;51.85;99714.34;10223494;28;20394;-70
2023/11/19 12:00:22;;;;;;;6.15;1.40;;;;;;;17.79;54.77;99710.16;10214537;28;20388;-73
2023/11/19 12:05:24;;;;;;;7.60;1.92;;;;;;;18.51;53.49;99707.81;10217360;28;20502;-72
2023/11/19 12:10:26;;;;;;;7.10;2.15;;;;;;;19.70;50.86;99706.56;10211229;28;20062;-71
2023/11/19 12:15:30;;;;;;;7.47;1.65;;;;;;;19.43;50.08;99703.63;10220541;28;20062;-71
2023/11/19 12:20:35;;;;;;;7.22;1.58;;;;;;;19.70;50.25;99712.78;10224426;28;21516;-70
2023/11/19 12:25:36;;;;;;;6.35;1.77;;;;;;;20.55;46.23;99709.13;10219310;28;20569;-71
2023/11/19 12:30:38;;;;;;;4.47;1.45;;;;;;;21.55;45.75;99701.25;10216356;28;20070;-73
2023/11/19 12:35:44;;;;;;;6.90;1.58;;;;;;;22.27;44.57;99698.63;10219675;28;20498;-73
2023/11/19 12:40:45;;;;;;;6.47;1.60;;;;;;;22.68;42.85;99702.84;10209486;28;20530;-70
2023/11/19 12:45:49;;;;;;;4.75;1.50;;;;;;;22.52;42.12;99692.47;10219512;28;20142;-71
2023/11/19 12:50:55;;;;;;;7.47;1.50;;;;;;;22.01;44.27;99691.41;10220378;28;20057;-75
2023/11/19 12:56:07;;;;;;;4.40;1.17;;;;;;;21.29;44.88;99693.94;10219573;28;20057;-71
2023/11/19 13:01:09;;;;;;;5.85;1.38;;;;;;;22.23;42.93;99679.25;10219275;28;20575;-71
2023/11/19 13:06:15;;;;;;;5.43;1.27;;;;;;;22.67;40.66;99678.66;10227345;28;20047;-73
2023/11/19 13:11:33;;;;;;;6.40;1.67;;;;;;;23.99;38.33;99670.53;10230931;28;20059;-72
2023/11/19 13:16:37;;;;;;;4.55;0.98;;;;;;;24.93;36.46;99658.47;10221992;28;20114;-73
2023/11/19 13:21:39;;;;;;;3.63;1.40;;;;;;;25.74;35.63;99663.47;10205720;28;20053;-71
2023/11/19 13:26:41;;;;;;;4.17;1.77;;;;;;;25.54;34.78;99666.56;10220086;28;20199;-71
2023/11/19 13:31:43;;;;;;;5.63;1.33;;;;;;;23.24;38.16;99652.44;10217578;28;20066;-73
2023/11/19 13:36:44;;;;;;;4.47;0.90;;;;;;;21.11;44.70;99649.38;10219601;28;20207;-72
2023/11/19 13:41:46;;;;;;;6.68;1.73;;;;;;;19.96;45.21;99657.28;10217891;28;20051;-79
2023/11/19 13:46:47;;;;;;;4.95;1.25;;;;;;;19.43;47.67;99647.78;10207513;28;20528;-75
2023/11/19 13:51:49;;;;;;;5.47;1.73;;;;;;;19.07;48.55;99637.13;10197574;28;20059;-70
2023/11/19 13:56:55;;;;;;;5.00;1.50;;;;;;;18.96;48.79;99645.72;10212888;28;20078;-72
2023/11/19 14:01:57;;;;;;;4.43;1.23;;;;;;;18.40;49.15;99636.41;10214520;28;20273;-71
2023/11/19 14:06:58;;;;;;;6.35;1.20;;;;;;;18.02;49.82;99625.81;10216671;28;20070;-70
2023/11/19 14:12:03;;;;;;;4.10;1.52;;;;;;;17.88;50.73;99638.22;10215520;28;20071;-71
2023/11/19 14:17:05;;;;;;;8.20;1.73;;;;;;;17.57;50.83;99636.53;10215457;28;20203;-71
2023/11/19 14:22:10;;;;;;;5.95;1.80;;;;;;;17.34;51.54;99635.75;10201335;28;20071;-72
2023/11/19 14:27:12;;;;;;;4.30;1.02;;;;;;;17.08;50.50;99626.22;10214913;28;20047;-69
2023/11/19 14:32:13;;;;;;;5.63;1.60;;;;;;;16.81;49.81;99608.78;10210794;28;20049;-70
2023/11/19 14:37:15;;;;;;;7.15;1.67;;;;;;;16.96;48.39;99613.22;10213985;28;20057;-75
2023/11/19 14:42:19;;;;;;;5.40;1.52;;;;;;;16.64;50.32;99614.28;10219751;28;20050;-70
2023/11/19 14:47:21;;;;;;;6.47;1.35;;;;;;;16.28;51.07;99612.16;10221326;28;20690;-69
2023/11/19 14:52:23;;;;;;;5.97;1.23;;;;;;;16.07;51.50;99605.53;10224568;28;20634;-70
2023/11/19 14:57:25;;;;;;;5.63;1.90;;;;;;;15.86;52.63;99600.75;10219499;28;20079;-69
2023/11/19 15:02:26;;;;;;;5.05;1.48;;;;;;;15.95;53.71;99608.78;10211291;28;20110;-70
2023/11/19 15:07:28;;;;;;;5.53;1.75;;;;;;;15.85;53.75;99615.22;10218404;28;20047;-69
2023/11/19 15:12:30;;;;;;;7.72;1.75;;;;;;;15.64;54.29;99618.44;10224345;28;20477;-72
2023/11/19 15:17:31;;;;;;;6.88;2.15;;;;;;;15.49;54.11;99634.38;10221378;28;20125;-69
2023/11/19 15:22:33;;;;;;;8.20;2.17;;;;;;;15.47;55.26;99649.78;10194074;28;20111;-70
2023/11/19 15:27:35;;;;;;;4.25;1.52;;;;;;;15.29;55.15;99651.84;10220722;28;20066;-70
2023/11/19 15:32:37;;;;;;;5.45;1.95;;;;;;;15.17;54.21;99659.38;10207071;28;20059;-72
2023/11/19 15:37:43;;;;;;;7.43;2.10;;;;;;;15.17;55.83;99681.66;10222076;28;20256;-69
2023/11/19 15:42:46;;;;;;;7.05;1.17;;;;;;;15.16;56.38;99681.81;10220211;28;20065;-71
2023/11/19 15:47:49;;;;;;;7.30;1.30;;;;;;;15.13;56.04;99691.06;10221277;28;20059;-67
2023/11/19 15:52:51;;;;;;;7.13;1.70;;;;;;;15.07;56.19;99691.69;10205424;28;20183;-70
2023/11/19 15:57:52;;;;;;;5.22;2.28;;;;;;;15.06;56.77;99699.91;10217429;28;20055;-72
2023/11/19 16:02:55;;;;;;;5.07;1.50;;;;;;;15.01;57.23;99703.94;10220701;28;20771;-72
2023/11/19 16:07:57;;;;;;;8.20;1.67;;;;;;;14.96;56.96;99705.44;10221299;28;20502;-72
2023/11/19 16:12:58;;;;;;;6.40;2.17;;;;;;;14.85;57.50;99718.13;10220602;28;20628;-73
2023/11/19 16:18:00;;;;;;;4.93;1.52;;;;;;;14.71;57.59;99713.41;10193072;28;20055;-72
2023/11/19 16:23:04;;;;;;;4.55;1.40;;;;;;;14.66;58.60;99710.41;10219187;28;20055;-71
2023/11/19 16:28:09;;;;;;;7.72;1.88;;;;;;;14.66;68.24;99699.69;10218890;28;20246;-72
2023/11/19 16:33:11;;;;;;;8.68;2.30;;;;;;;14.70;60.20;99711.75;10199939;28;20052;-73
2023/11/19 16:38:26;;;;;;;9.30;3.20;;;;;;;14.65;58.97;99714.06;10221078;28;20149;-72
2023/11/19 16:43:29;;;;;;;6.13;2.80;;;;;;;14.43;59.31;99716.31;10222112;28;20047;-68
2023/11/19 16:48:30;;;;;;;8.65;2.30;;;;;;;14.37;58.88;99721.50;10218191;28;20626;-70
2023/11/19 16:53:32;;;;;;;10.95;3.30;;;;;;;14.32;59.65;99725.47;10219706;28;20054;-75
2023/11/19 16:58:33;;;;;;;9.13;2.80;;;;;;;14.14;59.87;99720.22;10191540;28;20063;-70
2023/11/19 17:03:36;;;;;;;6.72;2.42;;;;;;;14.06;59.76;99714.81;10217583;28;20051;-71
2023/11/19 17:08:38;;;;;;;9.75;3.40;;;;;;;14.01;59.92;99711.78;10196497;28;20047;-71
2023/11/19 17:13:39;;;;;;;4.68;1.88;;;;;;;13.99;60.45;99705.75;10206022;28;20061;-72
2023/11/19 17:18:41;;;;;;;6.88;1.90;;;;;;;13.94;60.22;99708.06;10193994;28;20553;-77
2023/11/19 17:23:43;;;;;;;4.20;1.80;;;;;;;13.93;60.57;99717.06;10202439;28;20449;-71
2023/11/19 17:28:45;;;;;;;5.80;1.88;;;;;;;13.87;60.39;99712.34;10203564;28;20067;-73
2023/11/19 17:33:49;;;;;;;7.22;2.97;;;;;;;13.77;61.05;99715.97;10221242;28;20193;-76
2023/11/19 17:38:51;;;;;;;5.72;2.17;;;;;;;13.72;60.37;99715.63;10208658;28;20714;-71
2023/11/19 17:43:53;;;;;;;6.82;1.80;;;;;;;13.67;60.69;99725.09;10198731;28;20055;-69
2023/11/19 17:48:55;;;;;;;6.80;2.33;;;;;;;13.57;60.88;99725.19;10212998;28;20065;-73
2023/11/19 17:53:56;;;;;;;6.20;1.80;;;;;;;13.54;60.33;99710.31;10217607;28;20134;-74
2023/11/19 17:58:58;;;;;;;4.93;1.65;;;;;;;13.52;60.88;99723.00;10216751;28;20134;-72
2023/11/19 18:03:59;;;;;;;6.85;2.15;;;;;;;13.39;60.63;99726.06;10217437;28;20063;-70
2023/11/19 18:09:02;;;;;;;5.32;1.95;;;;;;;13.36;61.23;99738.91;10213070;28;20433;-70
2023/11/19 18:14:03;;;;;;;7.53;2.00;;;;;;;13.32;60.99;99738.34;10218312;28;20059;-71
2023/11/19 18:19:06;;;;;;;9.77;2.47;;;;;;;13.29;61.75;99732.47;10213778;28;20055;-74
2023/11/19 18:24:08;;;;;;;6.07;2.40;;;;;;;13.20;61.74;99750.28;10216115;28;20043;-73
2023/11/19 18:29:10;;;;;;;6.68;2.90;;;;;;;13.16;62.21;99743.53;10220531;28;20648;-74
2023/11/19 18:34:13;;;;;;;8.30;2.95;;;;;;;13.04;61.99;99749.09;10215606;28;20055;-71
2023/11/19 18:39:15;;;;;;;6.70;2.38;;;;;;;13.03;62.21;99752.78;10201375;28;20059;-73
2023/11/19 18:44:17;;;;;;;7.97;2.15;;;;;;;12.98;62.22;99747.03;10215109;28;20039;-71
2023/11/19 18:49:18;;;;;;;8.80;2.25;;;;;;;12.86;62.51;99743.75;10212763;28;20059;-72
2023/11/19 18:54:22;;;;;;;5.57;2.00;;;;;;;12.97;62.73;99742.72;10206255;28;20505;-74
2023/11/19 18:59:24;;;;;;;10.67;3.30;;;;;;;12.99;63.09;99754.06;10186415;28;20095;-75
2023/11/19 19:04:28;;;;;;;8.07;2.15;;;;;;;12.92;63.79;99758.31;10198148;28;20089;-71
2023/11/19 19:09:30;;;;;;;8.93;2.60;;;;;;;12.86;64.32;99756.25;10211589;28;20083;-73
2023/11/19 19:14:32;;;;;;;13.55;3.55;;;;;;;12.88;64.59;99755.13;10197315;28;20082;-76
2023/11/19 19:19:34;;;;;;;10.88;2.85;;;;;;;12.86;65.24;99753.59;10213234;28;20057;-74
2023/11/19 19:24:39;;;;;;;7.65;2.88;;;;;;;12.91;65.10;99759.34;10224732;28;20059;-73
2023/11/19 19:29:40;;;;;;;7.72;2.78;;;;;;;12.79;64.55;99757.84;10215648;28;20119;-71
2023/11/19 19:34:45;;;;;;;;;;;;;;;12.76;64.67;99763.50;10223375;28;20055;-75
2023/11/19 19:39:51;;;;;;;6.63;2.35;;;;;;;12.76;64.86;99755.47;10222359;28;20432;-70
2023/11/19 19:44:52;;;;;;;11.25;2.90;;;;;;;12.76;64.99;99763.50;10221640;28;20061;-69
2023/11/19 19:49:58;;;;;;;6.70;2.60;;;;;;;12.70;65.08;99770.25;10220079;28;20189;-72
2023/11/19 19:54:59;;;;;;;9.55;3.05;;;;;;;12.68;65.35;99773.06;10208747;28;20852;-71
2023/11/19 20:00:08;;;;;;;4.68;1.95;;;;;;;12.66;65.44;99785.75;10194888;28;20058;-71
2023/11/19 20:05:15;;;;;;;8.10;2.80;;;;;;;12.66;65.94;99769.72;10219326;28;20485;-72
2023/11/19 20:10:17;;;;;;;10.23;2.40;;;;;;;12.76;66.21;99763.50;10221422;28;20055;-71
2023/11/19 20:15:21;;;;;;;7.97;2.03;;;;;;;12.71;66.22;99756.75;10202858;28;20138;-70
2023/11/19 20:20:23;;;;;;;5.35;1.90;;;;;;;12.66;66.58;99758.22;10222475;28;20047;-70
2023/11/19 20:25:24;;;;;;;8.15;2.53;;;;;;;12.69;67.33;99769.44;10210615;28;20909;-72
2023/11/19 20:30:26;;;;;;;7.72;2.67;;;;;;;12.71;67.21;99762.09;10212643;28;20789;-71
2023/11/19 20:35:27;;;;;;;8.30;2.40;;;;;;;12.71;67.59;99764.78;10217712;28;20720;-73
2023/11/19 20:40:29;;;;;;;7.35;1.90;;;;;;;12.65;67.89;99752.03;10216126;28;20509;-75
2023/11/19 20:45:31;;;;;;;7.25;2.40;;;;;;;12.69;68.62;99753.41;10207478;28;20074;-70
2023/11/19 20:50:34;;;;;;;5.03;2.00;;;;;;;12.69;68.48;99748.06;10205261;28;20069;-72
2023/11/19 20:55:35;;;;;;;7.05;2.28;;;;;;;12.64;69.04;99755.69;10199566;28;20524;-70
2023/11/19 21:00:41;;;;;;;9.35;2.22;;;;;;;12.70;69.37;99768.44;10219146;28;20102;-73
2023/11/19 21:05:43;;;;;;;10.18;2.25;;;;;;;12.62;69.51;99757.66;10220378;28;20055;-68
2023/11/19 21:10:48;;;;;;;7.15;2.17;;;;;;;12.69;69.87;99752.56;10220643;28;20059;-75
2023/11/19 21:15:49;;;;;;;7.90;1.95;;;;;;;12.73;70.17;99744.13;10206704;28;20082;-74
2023/11/19 21:20:59;;;;;;;6.50;1.92;;;;;;;12.75;70.23;99746.63;10207418;28;20060;-72
2023/11/19 21:26:03;;;;;;;8.95;2.42;;;;;;;12.64;70.55;99741.50;10222151;28;20155;-72
2023/11/19 21:31:04;;;;;;;10.10;2.80;;;;;;;12.58;71.49;99742.94;10217995;28;20053;-73
2023/11/19 21:36:06;;;;;;;13.75;2.80;;;;;;;12.64;72.42;99761.03;10203436;28;20057;-74
2023/11/19 21:41:08;;;;;;;8.18;2.78;;;;;;;12.65;72.59;99751.19;10205388;28;20063;-75
2023/11/19 21:46:09;;;;;;;11.68;3.05;;;;;;;12.68;72.87;99741.03;10218389;28;20047;-71
2023/11/19 21:51:10;;;;;;;8.77;2.78;;;;;;;12.67;72.53;99744.72;10204687;28;20266;-71
2023/11/19 21:56:13;;;;;;;7.75;1.85;;;;;;;12.71;72.65;99751.41;10215766;28;20063;-72
2023/11/19 22:01:15;;;;;;;9.95;1.98;;;;;;;12.66;72.81;99743.03;10206288;28;20059;-72
2023/11/19 22:06:19;;;;;;;9.55;2.30;;;;;;;12.70;73.16;99748.91;10215880;28;20061;-70
2023/11/19 22:11:23;;;;;;;8.20;2.55;;;;;;;12.70;72.85;99749.75;10208434;28;20059;-72
2023/11/19 22:16:25;;;;;;;10.05;2.60;;;;;;;12.70;72.72;99743.56;10212649;28;20122;-75
2023/11/19 22:21:27;;;;;;;6.35;2.38;;;;;;;12.72;72.76;99752.28;10215477;28;20117;-75
2023/11/19 22:26:31;;;;;;;9.50;2.17;;;;;;;12.72;72.89;99757.63;10217475;28;20066;-71
2023/11/19 22:31:33;;;;;;;7.90;2.45;;;;;;;12.62;73.05;99741.63;10191266;28;20062;-73
2023/11/19 22:36:36;;;;;;;13.23;2.23;;;;;;;12.73;73.41;99754.81;10216592;28;20050;-71
2023/11/19 22:41:37;;;;;;;8.27;2.33;;;;;;;12.69;73.26;99736.56;10211288;28;20596;-73
2023/11/19 22:46:39;;;;;;;9.88;2.15;;;;;;;12.71;73.49;99735.41;10216211;28;20433;-71
2023/11/19 22:51:40;;;;;;;14.18;2.78;;;;;;;12.67;73.84;99731.38;10214984;28;20106;-75
2023/11/19 22:56:42;;;;;;;10.63;3.10;;;;;;;12.64;73.63;99731.66;10204803;28;20074;-70
2023/11/19 23:01:44;;;;;;;10.50;3.03;;;;;;;12.66;74.14;99735.00;10228004;28;20051;-70
2023/11/19 23:06:46;;;;;;;6.97;2.42;;;;;;;12.62;73.94;99730.13;10225989;28;20059;-72
2023/11/19 23:11:47;;;;;;;7.10;2.38;;;;;;;12.55;73.88;99714.72;10224021;28;20226;-73
2023/11/19 23:16:50;;;;;;;7.43;2.38;;;;;;;12.70;73.65;99739.06;10223150;28;20058;-73
2023/11/19 23:21:51;;;;;;;9.75;2.83;;;;;;;12.70;73.79;99748.91;10200150;28;20047;-72
2023/11/19 23:26:53;;;;;;;10.50;2.30;;;;;;;12.64;73.97;99734.34;10223030;28;20061;-73